Time;durP1;ratioP1;P1;durP2;ratioP2;P2;SDS_P1;SDS_P2;PMS_P1;PMS_P2;Temp;Humidity;BMP_temperature;BMP_pressure;BME280_temperature;BME280_humidity;BME280_pressure;Samples;Min_cycle;Max_cycle;Signal;HPM_P1;HPM_P2
2021/06/09 00:01:54;;;;;;;23.23;15.35;;;;;;;13.50;75.11;100957.34;5063504;28;20477;-73
2021/06/09 00:04:20;;;;;;;24.42;15.18;;;;;;;13.44;75.11;100953.09;5063518;28;20328;-72
2021/06/09 00:06:45;;;;;;;25.17;16.40;;;;;;;13.49;75.29;100966.06;5063102;28;20024;-71
2021/06/09 00:09:11;;;;;;;26.90;16.77;;;;;;;13.49;75.71;100960.84;5063445;28;20048;-72
2021/06/09 00:11:36;;;;;;;33.40;17.27;;;;;;;13.46;76.00;100960.88;5045307;28;20017;-71
2021/06/09 00:14:04;;;;;;;28.60;16.75;;;;;;;13.43;76.42;100958.31;5063496;28;20025;-73
2021/06/09 00:16:29;;;;;;;27.25;17.00;;;;;;;13.42;76.79;100959.22;5063088;28;20029;-73
2021/06/09 00:18:55;;;;;;;29.85;17.67;;;;;;;13.36;76.84;100950.56;5063192;28;20089;-72
2021/06/09 00:21:20;;;;;;;29.45;17.85;;;;;;;13.41;76.95;100960.94;5061748;28;20041;-71
2021/06/09 00:23:46;;;;;;;33.22;19.38;;;;;;;13.40;77.42;100954.00;5045502;28;20079;-73
2021/06/09 00:26:13;;;;;;;29.67;19.25;;;;;;;13.39;77.58;100955.75;5045511;28;20075;-73
2021/06/09 00:28:39;;;;;;;34.53;21.02;;;;;;;13.37;77.68;100962.72;5063233;28;20047;-73
2021/06/09 00:31:06;;;;;;;36.17;20.48;;;;;;;13.36;77.86;100961.00;5065598;28;20477;-73
2021/06/09 00:33:32;;;;;;;28.52;20.10;;;;;;;13.39;77.98;100960.97;5067369;28;20327;-71
2021/06/09 00:35:58;;;;;;;30.75;19.73;;;;;;;13.44;78.15;100958.31;5067273;28;20036;-71
2021/06/09 00:38:26;;;;;;;33.85;19.52;;;;;;;13.51;78.06;100957.38;5065845;28;20079;-72
2021/06/09 00:40:52;;;;;;;32.90;18.90;;;;;;;13.55;78.13;100954.72;5067029;28;20037;-72
2021/06/09 00:43:20;;;;;;;31.67;19.80;;;;;;;13.62;78.36;100956.38;5067092;28;20091;-72
2021/06/09 00:45:48;;;;;;;29.77;19.13;;;;;;;13.67;78.29;100954.59;5049008;28;20021;-71
2021/06/09 00:48:14;;;;;;;37.13;20.30;;;;;;;13.74;78.24;100952.75;5048972;28;20020;-70
2021/06/09 00:50:40;;;;;;;31.50;19.95;;;;;;;13.78;77.99;100945.75;5066965;28;20025;-71
2021/06/09 00:55:50;;;;;;;28.83;18.88;;;;;;;13.85;77.81;100943.03;5067145;28;20036;-71
2021/06/09 00:58:17;;;;;;;32.78;19.83;;;;;;;13.90;77.66;100942.13;5066796;28;20028;-72
2021/06/09 01:00:43;;;;;;;32.58;18.88;;;;;;;13.91;77.89;100949.94;5048920;28;20025;-72
2021/06/09 01:03:09;;;;;;;30.40;18.70;;;;;;;13.95;77.83;100945.50;5048663;28;20032;-72
2021/06/09 01:05:35;;;;;;;30.38;18.52;;;;;;;13.98;77.98;100948.09;5066527;28;20029;-73
2021/06/09 01:08:05;;;;;;;28.55;18.85;;;;;;;14.00;77.99;100951.53;5066557;28;20136;-72
2021/06/09 01:10:31;;;;;;;36.22;20.23;;;;;;;14.08;77.88;100949.69;5066828;28;20025;-72
2021/06/09 01:12:58;;;;;;;25.23;18.67;;;;;;;14.09;77.98;100945.34;5066841;28;20027;-72
2021/06/09 01:15:24;;;;;;;34.05;20.42;;;;;;;14.13;77.88;100953.13;5066670;28;20025;-72
2021/06/09 01:17:50;;;;;;;36.53;18.60;;;;;;;14.17;78.13;100958.28;5066343;28;20085;-72
2021/06/09 01:20:15;;;;;;;29.85;18.10;;;;;;;14.23;77.78;100955.59;5066462;28;20108;-72
2021/06/09 01:22:41;;;;;;;34.88;20.42;;;;;;;14.29;77.89;100954.63;5066178;28;20025;-73
2021/06/09 01:25:08;;;;;;;32.55;20.58;;;;;;;14.28;77.82;100950.28;5066503;28;20067;-72
2021/06/09 01:27:34;;;;;;;35.00;19.98;;;;;;;14.33;77.71;100954.53;5066199;28;20027;-71
2021/06/09 01:30:00;;;;;;;33.60;20.75;;;;;;;14.40;77.68;100960.53;5048337;28;20029;-71
2021/06/09 01:32:27;;;;;;;29.73;20.35;;;;;;;14.43;77.65;100957.00;5066202;28;20027;-72
2021/06/09 01:34:52;;;;;;;34.05;21.02;;;;;;;14.43;77.86;100957.00;5065990;28;20040;-72
2021/06/09 01:37:19;;;;;;;35.83;19.92;;;;;;;14.44;77.63;100951.75;5066120;28;20438;-72
2021/06/09 01:39:44;;;;;;;33.42;21.15;;;;;;;14.46;77.71;100955.22;5065441;28;20104;-72
2021/06/09 01:42:10;;;;;;;39.38;19.83;;;;;;;14.48;77.75;100958.69;5065987;28;20044;-71
2021/06/09 01:44:40;;;;;;;36.63;20.98;;;;;;;14.54;77.86;100956.81;5065569;28;20486;-72
2021/06/09 01:47:05;;;;;;;34.28;20.38;;;;;;;14.47;77.78;100950.88;5065954;28;20039;-72
2021/06/09 01:49:31;;;;;;;33.67;19.83;;;;;;;14.50;77.90;100946.44;5065957;28;20032;-72
2021/06/09 01:51:57;;;;;;;35.65;22.30;;;;;;;14.51;77.92;100957.75;5065659;28;20049;-73
2021/06/09 01:54:23;;;;;;;39.42;19.98;;;;;;;14.50;78.04;100945.59;5047863;28;20028;-72
2021/06/09 01:56:50;;;;;;;36.35;20.77;;;;;;;14.57;77.68;100949.81;5064650;28;20025;-73
2021/06/09 01:59:17;;;;;;;33.70;21.35;;;;;;;14.61;77.62;100950.63;5047706;28;20020;-73
2021/06/09 02:01:45;;;;;;;34.58;20.73;;;;;;;14.63;77.46;100946.25;5065339;28;20021;-71
2021/06/09 02:04:12;;;;;;;32.75;21.45;;;;;;;14.68;77.39;100947.00;5047538;28;20037;-71
2021/06/09 02:06:39;;;;;;;37.25;20.58;;;;;;;14.65;77.39;100949.69;5065415;28;20051;-71
2021/06/09 02:09:05;;;;;;;32.70;20.73;;;;;;;14.76;77.24;100957.34;5047496;28;20088;-72
2021/06/09 02:11:31;;;;;;;38.28;21.50;;;;;;;14.77;76.85;100952.97;5065429;28;20028;-72
2021/06/09 02:13:57;;;;;;;33.38;21.65;;;;;;;14.85;76.78;100951.13;5065442;28;20048;-71
2021/06/09 02:16:23;;;;;;;36.60;21.35;;;;;;;14.82;76.46;100943.34;5065358;28;20094;-72
2021/06/09 02:18:48;;;;;;;38.22;22.42;;;;;;;14.86;76.66;100951.09;5065302;28;20025;-71
2021/06/09 02:21:13;;;;;;;37.10;23.20;;;;;;;14.89;76.40;100946.72;5064790;28;20421;-70
2021/06/09 02:23:43;;;;;;;37.53;22.27;;;;;;;14.83;76.49;100937.22;5064071;28;20021;-72
2021/06/09 02:26:09;;;;;;;34.35;21.83;;;;;;;14.82;76.27;100936.38;5065350;28;20460;-72
2021/06/09 02:28:35;;;;;;;35.75;21.85;;;;;;;14.81;76.33;100936.41;5065249;28;20025;-72
2021/06/09 02:31:01;;;;;;;37.83;22.08;;;;;;;14.81;76.35;100939.03;5063891;28;20075;-71
2021/06/09 02:33:27;;;;;;;33.40;22.67;;;;;;;14.82;76.47;100940.72;5065252;28;20052;-71
2021/06/09 02:35:54;;;;;;;41.10;23.88;;;;;;;14.80;76.69;100943.38;5063628;28;20044;-71
2021/06/09 02:38:20;;;;;;;36.95;23.48;;;;;;;14.78;76.45;100941.63;5064913;28;20025;-71
2021/06/09 02:40:50;;;;;;;41.92;22.73;;;;;;;14.74;76.85;100943.47;5065010;28;20087;-71
2021/06/09 02:43:15;;;;;;;42.72;23.52;;;;;;;14.72;76.96;100950.44;5064710;28;20024;-71
2021/06/09 02:45:46;;;;;;;40.25;25.65;;;;;;;14.75;76.87;100945.16;5064896;28;20036;-72
2021/06/09 02:48:15;;;;;;;42.20;24.52;;;;;;;14.80;76.73;100952.97;5064910;28;20048;-70
2021/06/09 02:50:42;;;;;;;45.05;26.95;;;;;;;14.76;76.60;100944.25;5064674;28;20104;-71
2021/06/09 02:53:16;;;;;;;47.17;25.50;;;;;;;14.77;76.64;100945.13;5062289;28;20045;-71
2021/06/09 02:56:17;;;;;;;52.25;25.65;;;;;;;14.75;76.79;100945.16;5063338;28;20041;-71
2021/06/09 02:58:48;;;;;;;44.25;26.48;;;;;;;14.74;76.85;100941.69;5054385;28;20075;-71
2021/06/09 03:01:39;;;;;;;45.83;27.27;;;;;;;14.75;76.90;100947.78;5064425;28;20111;-71
2021/06/09 03:04:20;;;;;;;41.28;27.35;;;;;;;14.73;76.59;100942.59;5064542;28;20031;-71
2021/06/09 03:07:10;;;;;;;47.40;28.08;;;;;;;14.81;76.51;100950.31;5064315;28;20029;-69
2021/06/09 03:09:53;;;;;;;49.80;28.30;;;;;;;14.75;76.52;100946.03;5062874;28;20048;-71
2021/06/09 03:12:35;;;;;;;44.15;28.25;;;;;;;14.74;76.50;100943.47;5064683;28;20017;-72
2021/06/09 03:15:12;;;;;;;42.03;28.08;;;;;;;14.79;76.43;100952.09;5062790;28;20020;-72
2021/06/09 03:18:07;;;;;;;48.45;29.33;;;;;;;14.79;76.52;100952.09;5064213;28;20021;-71
2021/06/09 03:20:54;;;;;;;44.05;27.33;;;;;;;14.77;76.39;100946.00;5064250;28;20032;-72
2021/06/09 03:23:40;;;;;;;41.35;27.02;;;;;;;14.74;76.43;100954.75;5064004;28;20025;-71
2021/06/09 03:26:19;;;;;;;36.00;23.70;;;;;;;14.62;76.58;100942.78;5063984;28;20065;-72
2021/06/09 03:28:58;;;;;;;36.30;22.80;;;;;;;14.68;76.34;100954.84;5045951;28;20047;-72
2021/06/09 03:31:29;;;;;;;43.40;23.02;;;;;;;14.69;76.30;100947.88;5063841;28;20020;-72
2021/06/09 03:33:56;;;;;;;40.63;23.35;;;;;;;14.57;76.53;100943.75;5063967;28;20013;-73
2021/06/09 03:36:25;;;;;;;44.42;24.35;;;;;;;14.57;76.61;100946.34;5045556;28;20029;-71
2021/06/09 03:39:04;;;;;;;42.47;24.73;;;;;;;14.56;76.52;100945.50;5063819;28;20029;-72
2021/06/09 03:41:46;;;;;;;39.70;23.30;;;;;;;14.59;76.45;100950.66;5045612;28;20112;-72
2021/06/09 03:44:12;;;;;;;44.83;24.52;;;;;;;14.63;76.47;100947.09;5063402;28;20288;-71
2021/06/09 03:46:42;;;;;;;43.55;23.95;;;;;;;14.66;76.34;100946.19;5063696;28;20060;-73
2021/06/09 03:49:15;;;;;;;38.15;22.90;;;;;;;14.63;76.32;100946.25;5045446;28;20074;-73
2021/06/09 03:51:42;;;;;;;36.80;23.60;;;;;;;14.58;76.69;100948.94;5062394;28;20470;-72
2021/06/09 03:54:09;;;;;;;37.03;22.58;;;;;;;14.53;76.35;100948.16;5063855;28;20029;-73
2021/06/09 03:56:36;;;;;;;32.22;21.58;;;;;;;14.42;76.83;100944.84;5045112;28;20032;-73
2021/06/09 03:59:04;;;;;;;32.35;21.20;;;;;;;14.48;76.96;100952.56;5063489;28;20049;-72
2021/06/09 04:01:35;;;;;;;31.20;19.88;;;;;;;14.56;76.94;100950.72;5063280;28;20120;-73
2021/06/09 04:04:04;;;;;;;32.97;20.10;;;;;;;14.56;76.60;100948.09;5044826;28;20120;-71
2021/06/09 04:06:31;;;;;;;36.50;21.02;;;;;;;14.54;76.65;100952.47;5062900;28;20102;-71
2021/06/09 04:08:58;;;;;;;30.15;20.27;;;;;;;14.49;76.99;100952.56;5063101;28;20040;-73
2021/06/09 04:11:26;;;;;;;32.42;21.90;;;;;;;14.53;76.88;100949.88;5063071;28;20017;-72
2021/06/09 04:13:54;;;;;;;25.35;18.92;;;;;;;14.51;76.70;100944.69;5044995;28;20021;-72
2021/06/09 04:16:23;;;;;;;28.15;18.50;;;;;;;14.56;76.77;100952.44;5062890;28;20029;-72
2021/06/09 04:18:49;;;;;;;27.73;17.33;;;;;;;14.59;76.71;100945.44;5062822;28;20025;-71
2021/06/09 04:21:16;;;;;;;27.33;18.65;;;;;;;14.68;76.53;100948.78;5044658;28;20021;-71
2021/06/09 04:23:42;;;;;;;23.90;16.67;;;;;;;14.70;76.38;100949.59;5062855;28;20029;-71
2021/06/09 04:26:12;;;;;;;28.38;18.48;;;;;;;14.71;76.28;100952.19;5062926;28;20104;-72
2021/06/09 04:28:38;;;;;;;25.30;17.88;;;;;;;14.72;76.15;100953.06;5062847;28;20029;-72
2021/06/09 04:31:05;;;;;;;27.20;18.98;;;;;;;14.65;76.14;100946.22;5062704;28;20048;-69
2021/06/09 04:33:31;;;;;;;27.60;19.60;;;;;;;14.73;76.01;100952.16;5044739;28;20052;-71
2021/06/09 04:35:57;;;;;;;28.98;19.45;;;;;;;14.73;76.34;100954.78;5062713;28;20025;-71
2021/06/09 04:38:22;;;;;;;24.40;17.52;;;;;;;14.63;76.33;100946.25;5062567;28;20025;-72
2021/06/09 04:40:52;;;;;;;21.67;16.90;;;;;;;14.66;76.28;100943.59;5062318;28;20072;-71
2021/06/09 04:43:22;;;;;;;24.60;16.20;;;;;;;14.65;76.39;100948.84;5062883;28;20131;-71
2021/06/09 04:45:47;;;;;;;21.33;16.05;;;;;;;14.69;75.97;100959.22;5062978;28;20052;-71
2021/06/09 04:48:15;;;;;;;22.27;15.18;;;;;;;14.67;76.19;100944.44;5062799;28;20052;-70
2021/06/09 04:50:43;;;;;;;21.55;15.27;;;;;;;14.65;75.75;100948.84;5061335;28;20013;-70
2021/06/09 04:53:12;;;;;;;21.20;14.85;;;;;;;14.66;75.83;100950.56;5062766;28;20053;-71
2021/06/09 04:55:49;;;;;;;27.30;15.88;;;;;;;14.67;75.88;100944.44;5062858;28;20021;-69
2021/06/09 04:58:17;;;;;;;18.67;14.40;;;;;;;14.79;75.91;100940.75;5062734;28;20048;-69
2021/06/09 05:00:44;;;;;;;18.83;12.27;;;;;;;15.04;75.81;100942.94;5062706;28;20024;-73
2021/06/09 05:03:10;;;;;;;16.60;12.18;;;;;;;15.21;75.10;100934.78;5062634;28;20040;-70
2021/06/09 05:05:36;;;;;;;18.45;13.07;;;;;;;15.36;74.04;100947.59;5062670;28;20036;-70
2021/06/09 05:08:02;;;;;;;23.08;13.02;;;;;;;15.40;73.77;100952.75;5062497;28;20029;-70
2021/06/09 05:10:28;;;;;;;18.92;12.48;;;;;;;15.29;72.92;100947.75;5062350;28;20025;-70
2021/06/09 05:13:07;;;;;;;16.65;11.60;;;;;;;15.14;72.83;100951.50;5062932;28;20430;-70
2021/06/09 05:15:38;;;;;;;12.25;9.63;;;;;;;15.41;74.12;100954.47;5063966;28;20112;-73
2021/06/09 05:18:08;;;;;;;11.07;9.23;;;;;;;15.81;72.63;100953.66;5066405;28;20021;-71
2021/06/09 05:20:36;;;;;;;11.23;7.78;;;;;;;16.38;72.78;100947.16;5048416;28;20024;-70
2021/06/09 05:23:12;;;;;;;12.23;7.40;;;;;;;17.16;69.82;100951.31;5064952;28;20491;-70
2021/06/09 05:25:39;;;;;;;10.57;6.75;;;;;;;18.22;69.07;100944.78;5066554;28;20028;-69
2021/06/09 05:28:06;;;;;;;9.27;6.93;;;;;;;19.28;66.01;100954.38;5065027;28;20108;-69
2021/06/09 05:30:33;;;;;;;10.80;6.50;;;;;;;19.90;62.35;100950.34;5066372;28;20040;-70
2021/06/09 05:33:00;;;;;;;9.23;5.60;;;;;;;20.46;60.48;100948.16;5066145;28;20505;-69
2021/06/09 05:35:26;;;;;;;8.20;5.43;;;;;;;21.17;56.48;100931.09;5065779;28;20295;-71
2021/06/09 05:37:52;;;;;;;8.77;5.43;;;;;;;21.99;55.99;100940.63;5047958;28;20031;-70
2021/06/09 05:40:19;;;;;;;8.15;5.47;;;;;;;22.78;51.18;100944.66;5066264;28;20021;-69
2021/06/09 05:42:46;;;;;;;8.48;5.28;;;;;;;23.31;49.86;100954.31;5048273;28;20028;-71
2021/06/09 05:45:12;;;;;;;8.80;5.07;;;;;;;23.71;48.29;100948.66;5065914;28;20020;-70
2021/06/09 05:47:45;;;;;;;9.45;4.97;;;;;;;24.13;46.70;100946.31;5048053;28;20028;-69
2021/06/09 05:50:11;;;;;;;7.28;5.20;;;;;;;24.43;44.71;100951.75;5065865;28;20029;-70
2021/06/09 05:52:36;;;;;;;12.70;5.30;;;;;;;24.87;44.59;100939.44;5065732;28;20128;-70
2021/06/09 05:55:03;;;;;;;6.32;3.53;;;;;;;25.33;44.10;100934.91;5066011;28;20086;-70
2021/06/09 05:57:28;;;;;;;6.78;3.88;;;;;;;25.61;42.35;100942.00;5066076;28;20401;-69
2021/06/09 05:59:54;;;;;;;7.25;4.97;;;;;;;25.59;41.72;100951.84;5065957;28;20520;-70
2021/06/09 06:02:21;;;;;;;5.50;4.20;;;;;;;25.30;40.42;100932.44;5065861;28;20108;-70
2021/06/09 06:04:47;;;;;;;5.57;3.78;;;;;;;25.12;41.80;100952.09;5066226;28;20105;-69
2021/06/09 06:07:13;;;;;;;4.50;3.80;;;;;;;25.23;41.96;100945.25;5066484;28;20053;-69
2021/06/09 06:09:38;;;;;;;5.15;3.63;;;;;;;25.37;41.44;100939.94;5066247;28;20057;-69
2021/06/09 06:12:05;;;;;;;4.78;3.53;;;;;;;25.34;40.76;100949.88;5047990;28;20100;-69
2021/06/09 06:14:31;;;;;;;5.15;4.00;;;;;;;25.45;40.90;100938.56;5065966;28;20060;-69
2021/06/09 06:16:57;;;;;;;6.32;4.05;;;;;;;25.65;40.52;100941.81;5065664;28;20384;-69
2021/06/09 06:19:33;;;;;;;5.07;3.50;;;;;;;25.87;39.48;100946.59;5047565;28;20029;-69
2021/06/09 06:21:58;;;;;;;6.60;3.72;;;;;;;25.64;39.47;100946.25;5065355;28;20431;-69
2021/06/09 06:24:24;;;;;;;9.60;4.15;;;;;;;25.62;39.49;100945.53;5065445;28;20021;-69
2021/06/09 06:26:50;;;;;;;6.45;3.75;;;;;;;25.74;39.75;100960.69;5065419;28;20162;-69
2021/06/09 06:29:16;;;;;;;8.32;3.97;;;;;;;25.98;38.80;100945.88;5063818;28;20024;-69
2021/06/09 06:31:41;;;;;;;8.88;3.70;;;;;;;26.17;38.82;100945.53;5065295;28;20032;-69
2021/06/09 06:34:08;;;;;;;6.05;3.60;;;;;;;26.36;37.98;100946.97;5065283;28;20044;-69
2021/06/09 06:36:36;;;;;;;6.82;3.38;;;;;;;26.53;38.05;100947.66;5065178;28;20021;-69
2021/06/09 06:39:05;;;;;;;5.80;3.50;;;;;;;26.90;37.41;100946.94;5064055;28;20048;-69
2021/06/09 06:41:31;;;;;;;6.53;3.33;;;;;;;26.98;35.74;100945.44;5065014;28;20334;-69
2021/06/09 06:43:57;;;;;;;7.22;3.63;;;;;;;27.04;35.59;100951.34;5064815;28;20147;-70
2021/06/09 06:46:23;;;;;;;8.95;3.78;;;;;;;27.11;35.25;100949.94;5064700;28;20033;-69
2021/06/09 06:48:52;;;;;;;5.60;3.70;;;;;;;26.90;35.42;100946.94;5064750;28;20025;-70
2021/06/09 06:51:18;;;;;;;7.25;3.58;;;;;;;27.02;35.18;100955.91;5064341;28;20023;-69
2021/06/09 06:53:50;;;;;;;7.88;4.28;;;;;;;26.81;34.53;100954.63;5064527;28;20406;-69
2021/06/09 06:56:18;;;;;;;6.65;3.97;;;;;;;26.89;35.45;100959.41;5046443;28;20021;-69
2021/06/09 06:58:50;;;;;;;5.47;4.13;;;;;;;26.83;34.66;100954.50;5064278;28;20021;-70
2021/06/09 07:01:19;;;;;;;6.88;4.13;;;;;;;26.69;34.60;100966.13;5064113;28;20036;-69
2021/06/09 07:03:45;;;;;;;11.68;4.43;;;;;;;26.54;35.08;100960.00;5064192;28;20021;-69
2021/06/09 07:06:11;;;;;;;5.88;3.88;;;;;;;26.46;34.96;100957.88;5064144;28;20060;-69
2021/06/09 07:08:38;;;;;;;7.00;4.05;;;;;;;26.64;34.74;100962.91;5064217;28;20100;-69
2021/06/09 07:11:04;;;;;;;7.38;3.63;;;;;;;26.44;34.45;100965.13;5063957;28;20055;-69
2021/06/09 07:13:31;;;;;;;5.85;3.80;;;;;;;26.03;35.12;100961.53;5064161;28;20036;-69
2021/06/09 07:16:00;;;;;;;8.70;4.07;;;;;;;25.81;35.55;100957.63;5064129;28;20158;-69
2021/06/09 07:18:28;;;;;;;8.45;4.22;;;;;;;25.53;35.75;100962.88;5063996;28;20025;-68
2021/06/09 07:20:54;;;;;;;6.45;4.20;;;;;;;25.45;36.53;100960.69;5064061;28;20053;-69
2021/06/09 07:23:20;;;;;;;6.43;3.53;;;;;;;25.81;36.25;100966.47;5045980;28;20057;-69
2021/06/09 07:25:46;;;;;;;7.97;4.13;;;;;;;25.86;36.41;100966.16;5064002;28;20024;-69
2021/06/09 07:28:12;;;;;;;5.85;4.07;;;;;;;25.80;36.48;100963.91;5063997;28;20024;-69
2021/06/09 07:30:39;;;;;;;7.72;3.88;;;;;;;25.59;35.86;100962.47;5045729;28;20021;-69
2021/06/09 07:33:06;;;;;;;6.55;3.95;;;;;;;25.42;35.86;100958.22;5045735;28;20021;-69
2021/06/09 07:35:33;;;;;;;4.80;3.33;;;;;;;25.45;35.83;100967.81;5045685;28;20029;-69
2021/06/09 07:38:03;;;;;;;9.77;3.78;;;;;;;25.19;36.09;100965.00;5063103;28;20017;-69
2021/06/09 07:40:33;;;;;;;4.18;3.45;;;;;;;25.25;36.76;100970.78;5063961;28;20013;-70
2021/06/09 07:43:03;;;;;;;11.05;4.05;;;;;;;25.88;36.12;100968.72;5063623;28;20036;-69
2021/06/09 07:45:31;;;;;;;5.43;3.00;;;;;;;26.34;36.32;100956.91;5063569;28;20047;-70
2021/06/09 07:47:58;;;;;;;4.82;2.92;;;;;;;27.14;35.06;100962.22;5063340;28;20092;-70
2021/06/09 07:50:34;;;;;;;6.63;3.40;;;;;;;27.67;33.45;100962.00;5063426;28;20368;-70
2021/06/09 07:53:06;;;;;;;5.30;3.58;;;;;;;27.81;33.25;100966.34;5063262;28;20045;-69
2021/06/09 07:55:35;;;;;;;7.32;3.72;;;;;;;27.60;33.31;100976.75;5063558;28;20230;-69
2021/06/09 07:58:02;;;;;;;7.38;4.55;;;;;;;27.44;32.41;100969.00;5063305;28;20025;-69
2021/06/09 08:00:28;;;;;;;7.22;3.85;;;;;;;27.35;32.24;100966.00;5063209;28;20032;-68
2021/06/09 08:02:56;;;;;;;5.53;3.47;;;;;;;27.36;33.18;100972.19;5063050;28;20060;-69
2021/06/09 08:05:23;;;;;;;7.05;3.50;;;;;;;27.68;32.24;100968.22;5063194;28;20025;-68
2021/06/09 08:07:49;;;;;;;6.10;3.38;;;;;;;27.51;32.41;100974.75;5045418;28;20028;-68
2021/06/09 08:10:14;;;;;;;6.07;3.38;;;;;;;27.59;32.74;100969.69;5063389;28;20029;-68
2021/06/09 08:12:40;;;;;;;7.00;3.05;;;;;;;27.82;32.52;100980.53;5063129;28;20090;-69
2021/06/09 08:15:07;;;;;;;6.68;2.65;;;;;;;28.10;32.42;100970.47;5063315;28;20017;-69
2021/06/09 08:17:32;;;;;;;5.68;3.35;;;;;;;28.28;31.22;100975.41;5044939;28;20017;-69
2021/06/09 08:19:58;;;;;;;5.82;3.08;;;;;;;28.36;31.35;100970.38;5062921;28;20029;-69
2021/06/09 08:22:23;;;;;;;4.70;3.30;;;;;;;28.59;31.30;100970.47;5062911;28;20019;-68
2021/06/09 08:24:49;;;;;;;6.50;2.78;;;;;;;28.77;30.32;100967.34;5062862;28;20067;-68
2021/06/09 08:27:16;;;;;;;6.78;2.92;;;;;;;28.62;29.56;100967.56;5062882;28;20032;-68
2021/06/09 08:29:42;;;;;;;4.90;3.28;;;;;;;28.18;29.95;100970.78;5044749;28;20553;-68
2021/06/09 08:32:07;;;;;;;5.03;3.15;;;;;;;27.88;29.84;100955.22;5062882;28;20073;-68
2021/06/09 08:34:33;;;;;;;8.43;3.50;;;;;;;27.91;30.60;100969.19;5062824;28;20032;-68
2021/06/09 08:36:59;;;;;;;7.20;2.72;;;;;;;28.06;30.47;100963.69;5062779;28;20025;-70
2021/06/09 08:39:26;;;;;;;4.95;2.75;;;;;;;28.13;29.58;100964.09;5063025;28;20469;-68
2021/06/09 08:41:54;;;;;;;4.75;2.65;;;;;;;27.90;29.54;100963.97;5062908;28;20033;-68
2021/06/09 08:44:21;;;;;;;5.47;2.42;;;;;;;28.02;30.49;100965.72;5062854;28;20063;-69
2021/06/09 08:46:47;;;;;;;6.43;3.10;;;;;;;28.30;29.95;100962.81;5044938;28;20188;-68
2021/06/09 08:49:13;;;;;;;7.90;3.95;;;;;;;28.28;29.34;100968.25;5062744;28;20098;-68
2021/06/09 08:51:39;;;;;;;6.43;3.22;;;;;;;28.30;29.76;100973.50;5065384;28;20346;-68
2021/06/09 08:54:07;;;;;;;6.80;3.20;;;;;;;28.64;29.98;100964.78;5066678;28;20025;-68
2021/06/09 08:56:36;;;;;;;4.88;2.35;;;;;;;29.07;28.88;100953.41;5066659;28;20020;-69
2021/06/09 08:59:01;;;;;;;5.50;2.40;;;;;;;29.44;28.14;100962.19;5066509;28;20558;-69
2021/06/09 09:01:27;;;;;;;5.00;2.53;;;;;;;29.74;27.30;100954.47;5066498;28;20033;-70
2021/06/09 09:03:54;;;;;;;4.60;2.10;;;;;;;29.90;27.47;100954.94;5066516;28;20021;-69
2021/06/09 09:06:20;;;;;;;4.15;2.50;;;;;;;29.96;26.79;100961.59;5065025;28;20103;-69
2021/06/09 09:08:46;;;;;;;5.05;2.75;;;;;;;30.20;26.63;100965.03;5066450;28;20417;-68
2021/06/09 09:11:12;;;;;;;5.32;2.50;;;;;;;30.29;26.22;100961.59;5066652;28;20104;-69
2021/06/09 09:13:37;;;;;;;3.63;1.80;;;;;;;30.39;25.74;100965.19;5066662;28;20059;-69
2021/06/09 09:16:03;;;;;;;4.20;2.15;;;;;;;30.04;25.60;100963.63;5066605;28;20025;-70
2021/06/09 09:18:38;;;;;;;4.10;2.33;;;;;;;30.04;26.47;100967.16;5065158;28;20088;-69
2021/06/09 09:21:04;;;;;;;5.18;2.20;;;;;;;30.25;25.20;100966.38;5066353;28;20261;-70
2021/06/09 09:23:29;;;;;;;4.18;1.77;;;;;;;30.26;25.31;100969.88;5065004;28;20429;-69
2021/06/09 09:25:56;;;;;;;4.22;2.05;;;;;;;30.45;25.23;100973.69;5066251;28;20021;-70
2021/06/09 09:28:30;;;;;;;5.07;2.63;;;;;;;30.51;24.80;100974.00;5048128;28;20025;-68
2021/06/09 09:31:13;;;;;;;3.50;1.90;;;;;;;30.34;25.26;100964.72;5064779;28;20111;-69
2021/06/09 09:33:40;;;;;;;2.88;2.00;;;;;;;30.56;25.04;100962.94;5066004;28;20048;-69
2021/06/09 09:36:22;;;;;;;6.60;2.13;;;;;;;30.57;25.49;100956.59;5065968;28;20111;-69
2021/06/09 09:38:48;;;;;;;7.05;2.10;;;;;;;30.85;25.00;100964.94;5065867;28;20032;-68
2021/06/09 09:41:15;;;;;;;5.88;2.03;;;;;;;30.76;25.26;100960.34;5065747;28;20045;-69
2021/06/09 09:43:48;;;;;;;4.30;2.45;;;;;;;30.66;25.89;100957.59;5065991;28;20063;-70
2021/06/09 09:46:28;;;;;;;6.15;2.10;;;;;;;30.78;26.03;100959.25;5065954;28;20118;-68
2021/06/09 09:49:10;;;;;;;3.28;2.10;;;;;;;30.71;25.28;100957.22;5065730;28;20029;-69
2021/06/09 09:51:42;;;;;;;3.90;2.70;;;;;;;30.41;24.91;100954.34;5065633;28;20110;-69
2021/06/09 09:54:08;;;;;;;3.47;2.53;;;;;;;30.02;25.32;100958.41;5065768;28;20021;-69
2021/06/09 09:56:36;;;;;;;4.97;2.20;;;;;;;29.64;25.31;100949.88;5065684;28;20029;-67
2021/06/09 09:59:06;;;;;;;6.18;2.20;;;;;;;29.56;25.01;100960.31;5065497;28;20074;-69
2021/06/09 10:01:50;;;;;;;2.72;2.00;;;;;;;29.67;24.49;100965.69;5064875;28;20381;-68
2021/06/09 10:04:18;;;;;;;8.88;2.15;;;;;;;29.40;25.77;100964.22;5065385;28;20056;-69
2021/06/09 10:06:50;;;;;;;5.25;2.15;;;;;;;29.34;25.74;100970.06;5047443;28;20029;-68
2021/06/09 10:09:20;;;;;;;5.55;2.50;;;;;;;29.47;25.60;100967.28;5065520;28;20013;-68
2021/06/09 10:11:48;;;;;;;4.38;2.42;;;;;;;29.38;25.63;100973.38;5063797;28;20385;-68
2021/06/09 10:14:22;;;;;;;5.10;2.03;;;;;;;29.47;25.66;100969.09;5064215;28;20045;-68
2021/06/09 10:17:05;;;;;;;3.83;2.58;;;;;;;29.59;25.74;100962.78;5065329;28;20025;-68
2021/06/09 10:19:32;;;;;;;5.18;2.95;;;;;;;29.66;25.67;100968.47;5064230;28;20025;-69
2021/06/09 10:22:12;;;;;;;4.28;2.03;;;;;;;29.64;26.18;100968.59;5064625;28;20033;-69
2021/06/09 10:24:53;;;;;;;5.80;2.20;;;;;;;29.75;25.57;100972.22;5065034;28;20027;-69
2021/06/09 10:27:40;;;;;;;6.65;2.42;;;;;;;29.62;25.55;100969.72;5064973;28;20054;-68
2021/06/09 10:30:18;;;;;;;5.00;2.50;;;;;;;29.33;25.53;100976.38;5054129;28;20037;-68
2021/06/09 10:32:53;;;;;;;5.40;3.05;;;;;;;29.03;26.42;100970.69;5065152;28;20025;-69
2021/06/09 10:35:22;;;;;;;4.45;2.70;;;;;;;28.87;26.99;100967.50;5065062;28;20264;-68
2021/06/09 10:37:49;;;;;;;5.93;2.28;;;;;;;28.55;27.55;100974.31;5064775;28;20076;-69
2021/06/09 10:40:16;;;;;;;3.75;2.30;;;;;;;28.44;27.44;100970.66;5064741;28;20032;-69
2021/06/09 10:42:43;;;;;;;4.65;2.38;;;;;;;28.40;27.17;100968.34;5064742;28;20029;-70
2021/06/09 10:45:10;;;;;;;4.32;2.17;;;;;;;28.30;27.79;100960.13;5064760;28;20045;-69
2021/06/09 10:47:37;;;;;;;7.15;2.65;;;;;;;28.51;28.04;100956.84;5064738;28;20382;-69
2021/06/09 10:50:07;;;;;;;7.55;3.05;;;;;;;28.62;27.85;100964.88;5064431;28;20043;-69
2021/06/09 10:52:33;;;;;;;5.63;2.70;;;;;;;28.40;27.68;100957.66;5064275;28;20138;-69
2021/06/09 10:55:03;;;;;;;8.73;2.70;;;;;;;27.86;28.60;100963.34;5064467;28;20025;-69
2021/06/09 10:57:29;;;;;;;6.40;2.40;;;;;;;27.44;28.96;100961.00;5064301;28;20036;-69
2021/06/09 10:59:55;;;;;;;8.65;2.30;;;;;;;26.76;30.24;100962.06;5064409;28;20028;-69
2021/06/09 11:02:23;;;;;;;5.97;2.35;;;;;;;26.06;31.99;100964.00;5064216;28;20033;-69
2021/06/09 11:04:52;;;;;;;6.68;2.17;;;;;;;25.43;32.66;100961.75;5064573;28;20021;-69
2021/06/09 11:07:27;;;;;;;6.25;2.50;;;;;;;24.96;33.14;100954.84;5046433;28;20071;-69
2021/06/09 11:09:53;;;;;;;5.43;2.30;;;;;;;24.57;33.80;100958.91;5064310;28;20090;-69
2021/06/09 11:12:23;;;;;;;5.88;2.53;;;;;;;24.14;34.35;100963.94;5064064;28;20473;-69
2021/06/09 11:14:55;;;;;;;4.78;2.08;;;;;;;23.61;34.49;100963.38;5063670;28;20055;-69
2021/06/09 11:17:39;;;;;;;3.47;2.00;;;;;;;23.18;35.93;100967.34;5064163;28;20024;-70
2021/06/09 11:20:19;;;;;;;5.38;2.50;;;;;;;22.85;36.63;100962.88;5064068;28;20028;-69
2021/06/09 11:22:51;;;;;;;5.45;2.63;;;;;;;22.32;37.57;100968.16;5063782;28;20020;-70
2021/06/09 11:25:20;;;;;;;;;;;;;;;22.05;37.62;100961.47;5064454;28;20081;-69
2021/06/09 11:27:52;;;;;;;5.00;1.92;;;;;;;21.70;37.63;100970.09;5063864;28;19908;-70